Alem Mar — CUFT8 — position and weather

sailwx.info

Track history (hours):
 
Tides and Currents Weather Stations Pressure Air Temp Water Temp Dewpoint Dewpoint Depression Visibility Wind Speed Wind Dir Waves Ship Positions

Alem Mar

Last reported at 2018-Feb-25 21:07 UTC. Time now 2018-Feb-26 01:59 UTC.
Position N 41°01' W 008°45'.

Type: Fishing. MMSI: 263414680.

Date/timePositionNaut miles runAvg speedWind from/ knotsBaromVisibWave heightAir tempDewpointWater temp
2018-Feb-25 21:07N 41°01' W 008°45'1 9.3
2018-Feb-25 20:59N 41°02' W 008°45'5 9.4
2018-Feb-25 20:30N 41°06' W 008°43'5 9.0
2018-Feb-25 20:00N 41°11' W 008°42'  
2018-Feb-21 07:38N 41°11' W 008°42'0 0.0
2018-Feb-21 07:30N 41°11' W 008°42'0 0.0
2018-Feb-21 07:00N 41°11' W 008°42'0 0.4
2018-Feb-21 06:30N 41°11' W 008°42'5 9.5
2018-Feb-21 06:00N 41°06' W 008°44'  
2018-Feb-18 21:54N 41°03' W 008°50'4 9.6
2018-Feb-18 21:30N 41°06' W 008°47'5 9.5
2018-Feb-18 21:00N 41°10' W 008°43'1 2.7
2018-Feb-18 20:30N 41°11' W 008°42'  
Track history (hours):
 
Tides and Currents Weather Stations Pressure Air Temp Water Temp Dewpoint Dewpoint Depression Visibility Wind Speed Wind Dir Waves Ship Positions

Alem Mar

Last reported at 2018-Feb-25 21:07 UTC. Time now 2018-Feb-26 01:59 UTC.
Position N 41°01' W 008°45'.

Type: Fishing. MMSI: 263414680.

Date/timePositionNaut miles runAvg speedWind from/ knotsBaromVisibWave heightAir tempDewpointWater temp
2018-Feb-25 21:07N 41°01' W 008°45'1 9.3
2018-Feb-25 20:59N 41°02' W 008°45'5 9.4
2018-Feb-25 20:30N 41°06' W 008°43'5 9.0
2018-Feb-25 20:00N 41°11' W 008°42'  
2018-Feb-21 07:38N 41°11' W 008°42'0 0.0
2018-Feb-21 07:30N 41°11' W 008°42'0 0.0
2018-Feb-21 07:00N 41°11' W 008°42'0 0.4
2018-Feb-21 06:30N 41°11' W 008°42'5 9.5
2018-Feb-21 06:00N 41°06' W 008°44'  
2018-Feb-18 21:54N 41°03' W 008°50'4 9.6
2018-Feb-18 21:30N 41°06' W 008°47'5 9.5
2018-Feb-18 21:00N 41°10' W 008°43'1 2.7
2018-Feb-18 20:30N 41°11' W 008°42'  

Dump ship's entire track history